Time;durP1;ratioP1;P1;durP2;ratioP2;P2;SDS_P1;SDS_P2;PMS_P1;PMS_P2;Temp;Humidity;BMP_temperature;BMP_pressure;BME280_temperature;BME280_humidity;BME280_pressure;Samples;Min_cycle;Max_cycle;Signal;HPM_P1;HPM_P2
2023/03/22 04:01:59;;;;;;;0.60;0.40;;;19.40;52.30;;;;;;5286445;22;46001;-61
2023/03/22 04:04:26;;;;;;;0.55;0.50;;;19.40;52.30;;;;;;4994169;28;44709;-60
2023/03/22 04:06:55;;;;;;;0.50;0.50;;;19.40;52.30;;;;;;4995559;28;45355;-60
2023/03/22 04:09:26;;;;;;;0.73;0.60;;;19.40;52.30;;;;;;5000054;28;44957;-61
2023/03/22 04:11:52;;;;;;;0.47;0.47;;;19.40;52.30;;;;;;4982000;28;47118;-59
2023/03/22 04:14:18;;;;;;;0.47;0.47;;;19.40;52.30;;;;;;4990115;28;45127;-61
2023/03/22 04:16:43;;;;;;;0.40;0.40;;;19.40;52.40;;;;;;4996435;28;44845;-60
2023/03/22 04:19:09;;;;;;;0.50;0.50;;;19.40;52.40;;;;;;5023849;28;45151;-60
2023/03/22 04:21:34;;;;;;;0.60;0.60;;;19.30;52.40;;;;;;4999423;28;45753;-60
2023/03/22 04:24:00;;;;;;;0.45;0.40;;;19.30;52.40;;;;;;5005084;28;44963;-59
2023/03/22 04:26:25;;;;;;;0.40;0.40;;;19.30;52.40;;;;;;5001352;28;45064;-61
2023/03/22 04:28:51;;;;;;;0.57;0.50;;;19.30;52.40;;;;;;5020213;28;44784;-61
2023/03/22 04:31:17;;;;;;;0.40;0.40;;;19.30;52.40;;;;;;4999919;28;45470;-59
2023/03/22 04:33:46;;;;;;;0.40;0.40;;;19.30;53.00;;;;;;5004852;28;45141;-59
2023/03/22 04:36:16;;;;;;;1.30;0.40;;;19.30;52.40;;;;;;5013176;28;45335;-60
2023/03/22 04:38:42;;;;;;;0.32;0.32;;;19.30;52.40;;;;;;5006771;28;44940;-61
2023/03/22 04:41:08;;;;;;;0.45;0.40;;;19.30;52.40;;;;;;5000913;28;46990;-60
2023/03/22 04:43:34;;;;;;;0.63;0.50;;;19.30;52.40;;;;;;5021925;28;44868;-59
2023/03/22 04:46:03;;;;;;;0.55;0.55;;;19.30;52.40;;;;;;4971771;28;45205;-59
2023/03/22 04:48:29;;;;;;;0.45;0.40;;;19.30;52.40;;;;;;5013559;28;44952;-58
2023/03/22 04:50:55;;;;;;;0.65;0.45;;;19.30;52.40;;;;;;5010468;28;45460;-59
2023/03/22 04:53:26;;;;;;;0.55;0.52;;;19.30;52.50;;;;;;4986903;28;44894;-59
2023/03/22 04:55:55;;;;;;;0.68;0.50;;;19.20;52.40;;;;;;5017517;28;45140;-60
2023/03/22 04:58:22;;;;;;;0.43;0.40;;;19.20;52.40;;;;;;5003977;28;45108;-58
2023/03/22 05:00:48;;;;;;;0.40;0.40;;;19.20;52.40;;;;;;4991715;28;45441;-59
2023/03/22 05:03:17;;;;;;;1.70;0.82;;;19.20;52.40;;;;;;4999402;28;45197;-60
2023/03/22 05:05:52;;;;;;;0.45;0.43;;;19.20;52.40;;;;;;4992504;28;45262;-59
2023/03/22 05:08:19;;;;;;;0.60;0.47;;;19.20;52.50;;;;;;5019679;28;44955;-60
2023/03/22 05:10:45;;;;;;;0.60;0.60;;;19.20;52.50;;;;;;5016468;28;45316;-60
2023/03/22 05:13:10;;;;;;;0.50;0.50;;;19.20;52.50;;;;;;4990779;28;44957;-59
2023/03/22 05:15:38;;;;;;;0.50;0.50;;;19.20;52.50;;;;;;5003971;28;45060;-60
2023/03/22 05:18:03;;;;;;;0.45;0.40;;;19.20;52.40;;;;;;4984772;28;45347;-59
2023/03/22 05:20:29;;;;;;;0.77;0.47;;;19.20;52.40;;;;;;4994512;28;45673;-60
2023/03/22 05:22:55;;;;;;;0.40;0.40;;;19.20;52.40;;;;;;5021850;28;45125;-60
2023/03/22 05:25:21;;;;;;;0.40;0.40;;;19.20;52.50;;;;;;5010767;28;44977;-59
2023/03/22 05:27:49;;;;;;;0.45;0.43;;;19.20;52.40;;;;;;5016626;28;44906;-60
2023/03/22 05:30:15;;;;;;;0.40;0.40;;;19.20;52.50;;;;;;4985613;28;45394;-60
2023/03/22 05:32:42;;;;;;;0.45;0.45;;;19.20;52.40;;;;;;4963557;28;44982;-58
2023/03/22 05:35:08;;;;;;;0.70;0.60;;;19.20;52.40;;;;;;5012568;28;44937;-59
2023/03/22 05:37:34;;;;;;;0.68;0.60;;;19.10;52.40;;;;;;4996635;28;46030;-58
2023/03/22 05:39:59;;;;;;;0.40;0.40;;;19.10;52.40;;;;;;5019672;28;46176;-59
2023/03/22 05:42:25;;;;;;;0.45;0.40;;;19.10;52.50;;;;;;5010344;28;44874;-59
2023/03/22 05:44:51;;;;;;;0.50;0.50;;;19.10;52.50;;;;;;4985150;28;45189;-59
2023/03/22 05:47:16;;;;;;;0.55;0.50;;;19.10;52.50;;;;;;5000701;28;45006;-60
2023/03/22 05:49:42;;;;;;;0.63;0.60;;;19.10;52.50;;;;;;5008798;28;45454;-60
2023/03/22 05:52:07;;;;;;;0.50;0.50;;;19.10;52.50;;;;;;5010808;28;45018;-59
2023/03/22 05:54:33;;;;;;;0.63;0.60;;;19.10;52.50;;;;;;5021253;28;44691;-59
2023/03/22 05:56:59;;;;;;;0.47;0.35;;;19.10;52.40;;;;;;4984219;28;45085;-61
2023/03/22 05:59:24;;;;;;;0.60;0.60;;;19.10;52.50;;;;;;5008401;28;45219;-61
2023/03/22 06:01:50;;;;;;;0.38;0.32;;;19.10;52.50;;;;;;5004091;28;46019;-62
2023/03/22 06:04:17;;;;;;;0.95;0.47;;;19.10;52.50;;;;;;5007039;28;44906;-59
2023/03/22 06:06:43;;;;;;;0.52;0.50;;;19.10;52.40;;;;;;4980077;28;45215;-60
2023/03/22 06:09:09;;;;;;;0.82;0.50;;;19.10;52.30;;;;;;5015918;28;46550;-58
2023/03/22 06:11:36;;;;;;;0.40;0.40;;;19.10;52.20;;;;;;5010250;28;45232;-60
2023/03/22 06:14:01;;;;;;;0.98;0.50;;;19.10;52.20;;;;;;5014153;28;45077;-60
2023/03/22 06:16:27;;;;;;;0.73;0.50;;;19.20;52.20;;;;;;5013591;28;44820;-58
2023/03/22 06:18:53;;;;;;;0.88;0.50;;;19.10;52.10;;;;;;5015806;28;45379;-58
2023/03/22 06:21:18;;;;;;;0.68;0.68;;;19.10;52.10;;;;;;5014392;28;45270;-60
2023/03/22 06:23:44;;;;;;;0.82;0.70;;;19.10;52.20;;;;;;4998413;28;44854;-58
2023/03/22 06:26:10;;;;;;;0.40;0.40;;;19.10;52.20;;;;;;5012990;28;45004;-59
2023/03/22 06:28:36;;;;;;;1.23;0.50;;;19.10;52.20;;;;;;5008942;28;45835;-57
2023/03/22 06:31:08;;;;;;;0.73;0.50;;;19.20;52.20;;;;;;4975166;28;45156;-59
2023/03/22 06:33:34;;;;;;;0.55;0.40;;;19.20;52.20;;;;;;5017270;28;45170;-59
2023/03/22 06:36:00;;;;;;;0.50;0.40;;;19.10;52.20;;;;;;4974266;28;45057;-61
2023/03/22 06:38:27;;;;;;;0.50;0.50;;;19.20;52.20;;;;;;5020993;28;46413;-57
2023/03/22 06:40:52;;;;;;;1.42;0.60;;;19.20;52.10;;;;;;5012065;28;45213;-59
2023/03/22 06:43:18;;;;;;;0.60;0.60;;;19.10;52.10;;;;;;5017346;28;44916;-60
2023/03/22 06:45:45;;;;;;;0.52;0.50;;;19.10;52.00;;;;;;5010031;28;45312;-59
2023/03/22 06:48:11;;;;;;;0.52;0.40;;;19.20;52.00;;;;;;5014428;28;45423;-60
2023/03/22 06:50:37;;;;;;;1.42;0.60;;;19.20;51.90;;;;;;5009640;28;45182;-59
2023/03/22 06:53:04;;;;;;;1.15;0.60;;;19.20;51.90;;;;;;5016401;28;45289;-58
2023/03/22 06:55:33;;;;;;;0.50;0.40;;;19.20;51.90;;;;;;4998740;28;45239;-59
2023/03/22 06:58:02;;;;;;;0.50;0.50;;;19.20;51.90;;;;;;5015186;28;46142;-61
2023/03/22 07:00:28;;;;;;;0.40;0.40;;;19.20;51.90;;;;;;4995775;28;45037;-61
2023/03/22 07:02:53;;;;;;;0.40;0.40;;;19.20;52.00;;;;;;5004856;28;44941;-59
2023/03/22 07:05:19;;;;;;;0.60;0.40;;;19.20;51.90;;;;;;4991539;28;45198;-59
2023/03/22 07:07:45;;;;;;;0.82;0.60;;;19.20;51.90;;;;;;5003294;28;46076;-59
2023/03/22 07:10:10;;;;;;;0.80;0.60;;;19.20;51.90;;;;;;4995324;28;46426;-58
2023/03/22 07:12:36;;;;;;;0.73;0.50;;;19.20;52.00;;;;;;5012893;28;44816;-59
2023/03/22 07:15:02;;;;;;;0.45;0.40;;;19.20;51.90;;;;;;5023342;28;45435;-58
2023/03/22 07:17:28;;;;;;;0.50;0.50;;;19.20;51.90;;;;;;4979305;28;46239;-59
2023/03/22 07:19:53;;;;;;;0.55;0.55;;;19.20;51.90;;;;;;4999170;28;45155;-59
2023/03/22 07:22:23;;;;;;;0.75;0.57;;;19.20;51.80;;;;;;5005142;28;45587;-60
2023/03/22 07:24:49;;;;;;;0.60;0.60;;;19.30;51.80;;;;;;5016161;28;45161;-59
2023/03/22 07:27:15;;;;;;;0.40;0.40;;;19.20;51.80;;;;;;5011147;28;45560;-58
2023/03/22 07:29:41;;;;;;;0.50;0.50;;;19.30;51.80;;;;;;5016134;28;45137;-59
2023/03/22 07:32:06;;;;;;;0.40;0.40;;;19.30;51.80;;;;;;4995954;28;45064;-58
2023/03/22 07:34:32;;;;;;;0.55;0.55;;;19.30;51.80;;;;;;4994955;28;44971;-59
2023/03/22 07:36:57;;;;;;;0.40;0.40;;;19.30;51.70;;;;;;5009650;28;46222;-59
2023/03/22 07:39:27;;;;;;;0.45;0.45;;;19.30;51.70;;;;;;5013907;28;44945;-59
2023/03/22 07:41:53;;;;;;;0.73;0.60;;;19.30;51.60;;;;;;5016981;28;45180;-60
2023/03/22 07:44:19;;;;;;;0.40;0.40;;;19.30;51.60;;;;;;5015942;28;45181;-59
2023/03/22 07:46:44;;;;;;;0.30;0.30;;;19.40;51.60;;;;;;5003477;28;45659;-60
2023/03/22 07:49:10;;;;;;;0.40;0.40;;;19.40;51.60;;;;;;5021375;28;45036;-60
2023/03/22 07:51:35;;;;;;;0.47;0.47;;;19.40;51.60;;;;;;5005993;28;45086;-59
2023/03/22 07:54:01;;;;;;;0.32;0.32;;;19.40;51.60;;;;;;5019449;28;44942;-59
2023/03/22 07:56:26;;;;;;;0.50;0.50;;;19.40;51.50;;;;;;5017582;28;45617;-59
2023/03/22 07:58:52;;;;;;;0.30;0.30;;;19.40;51.50;;;;;;5016461;28;44988;-59
2023/03/22 08:01:18;;;;;;;0.50;0.50;;;19.40;51.50;;;;;;4993273;28;45458;-58
2023/03/22 08:03:44;;;;;;;0.73;0.52;;;19.40;51.50;;;;;;5017758;28;44915;-59
2023/03/22 08:06:10;;;;;;;0.95;0.55;;;19.40;51.50;;;;;;5018393;28;45411;-57
2023/03/22 08:08:36;;;;;;;1.27;0.50;;;19.40;51.40;;;;;;5020369;28;45128;-58
2023/03/22 08:11:05;;;;;;;0.50;0.50;;;19.40;51.40;;;;;;4993452;28;45116;-57
2023/03/22 08:13:31;;;;;;;1.05;0.40;;;19.50;51.40;;;;;;5022195;28;44740;-59
2023/03/22 08:15:56;;;;;;;0.50;0.50;;;19.50;51.30;;;;;;4996299;28;45246;-59
2023/03/22 08:18:22;;;;;;;0.68;0.60;;;19.50;51.30;;;;;;5021121;28;45214;-58
2023/03/22 08:20:57;;;;;;;0.60;0.50;;;19.50;51.30;;;;;;5013913;28;45840;-58
2023/03/22 08:23:24;;;;;;;1.13;0.60;;;19.50;51.30;;;;;;5007415;28;44794;-57
2023/03/22 08:25:50;;;;;;;0.65;0.50;;;19.50;51.30;;;;;;5017410;28;46243;-57
2023/03/22 08:28:15;;;;;;;0.40;0.40;;;19.60;51.30;;;;;;5021409;28;44932;-59
2023/03/22 08:30:45;;;;;;;0.55;0.45;;;19.50;51.20;;;;;;4981614;28;45184;-58
2023/03/22 08:33:11;;;;;;;0.50;0.50;;;19.60;51.30;;;;;;5001535;28;45168;-59
2023/03/22 08:35:37;;;;;;;0.40;0.40;;;19.60;51.30;;;;;;5010875;28;46055;-58
2023/03/22 08:38:02;;;;;;;0.55;0.55;;;19.60;51.30;;;;;;4989958;28;44972;-57
2023/03/22 08:40:28;;;;;;;0.88;0.70;;;19.60;51.20;;;;;;5002220;28;45112;-58
2023/03/22 08:42:54;;;;;;;0.40;0.40;;;19.60;51.20;;;;;;5019224;28;44873;-59
2023/03/22 08:45:19;;;;;;;0.45;0.40;;;19.60;51.20;;;;;;5008720;28;45640;-59
2023/03/22 08:47:45;;;;;;;0.60;0.43;;;19.60;51.10;;;;;;4985165;28;45045;-58
2023/03/22 08:50:10;;;;;;;0.65;0.63;;;19.70;51.20;;;;;;5011997;28;45035;-58
2023/03/22 08:52:36;;;;;;;0.40;0.40;;;19.70;51.10;;;;;;5019068;28;46535;-57
2023/03/22 08:55:03;;;;;;;0.50;0.50;;;19.60;51.10;;;;;;5002905;28;46919;-61
2023/03/22 08:57:28;;;;;;;1.15;0.63;;;19.70;51.10;;;;;;4997804;28;45515;-57
2023/03/22 08:59:56;;;;;;;0.63;0.50;;;19.70;51.10;;;;;;5018667;28;45157;-60
2023/03/22 09:02:22;;;;;;;0.75;0.45;;;19.70;51.60;;;;;;4992172;28;45781;-58
2023/03/22 09:04:48;;;;;;;0.40;0.38;;;19.70;51.00;;;;;;5016034;28;45212;-59
2023/03/22 09:07:14;;;;;;;0.55;0.50;;;19.70;51.00;;;;;;5017706;28;45256;-59
2023/03/22 09:09:39;;;;;;;0.60;0.60;;;19.70;51.00;;;;;;5021355;28;46353;-61
2023/03/22 09:12:05;;;;;;;0.75;0.60;;;19.70;50.90;;;;;;5016026;28;45036;-58
2023/03/22 09:14:31;;;;;;;0.50;0.43;;;19.70;51.00;;;;;;5022182;28;45343;-59
2023/03/22 09:16:56;;;;;;;0.52;0.52;;;19.80;51.00;;;;;;5012669;28;45293;-58
2023/03/22 09:19:22;;;;;;;0.40;0.40;;;19.80;50.90;;;;;;5019958;28;45465;-60
2023/03/22 09:21:48;;;;;;;0.57;0.55;;;19.80;50.90;;;;;;5011017;28;44980;-59
2023/03/22 09:24:14;;;;;;;0.47;0.45;;;19.80;50.90;;;;;;5022871;28;45904;-58
2023/03/22 09:26:40;;;;;;;0.60;0.60;;;19.80;50.90;;;;;;5001138;28;45027;-59
2023/03/22 09:29:05;;;;;;;0.57;0.57;;;19.80;51.00;;;;;;5024930;28;45072;-60
2023/03/22 09:31:31;;;;;;;0.50;0.45;;;19.80;51.00;;;;;;5011932;28;44730;-59
2023/03/22 09:33:57;;;;;;;0.50;0.50;;;19.80;50.90;;;;;;5018359;28;45561;-59
2023/03/22 09:36:22;;;;;;;0.40;0.40;;;19.80;50.90;;;;;;5009294;28;45405;-58
2023/03/22 09:38:48;;;;;;;0.50;0.50;;;19.80;50.90;;;;;;5019728;28;45334;-58
2023/03/22 09:41:15;;;;;;;0.50;0.50;;;19.80;50.90;;;;;;5002543;28;45208;-59
2023/03/22 09:43:52;;;;;;;1.02;0.38;;;19.80;50.90;;;;;;5024000;28;45801;-59
2023/03/22 09:46:26;;;;;;;0.75;0.50;;;19.80;50.80;;;;;;4997594;28;45387;-58
2023/03/22 09:48:51;;;;;;;0.50;0.43;;;19.80;50.90;;;;;;4989004;28;45393;-59
2023/03/22 09:51:49;;;;;;;0.50;0.40;;;19.80;50.80;;;;;;5014580;28;44942;-59
2023/03/22 09:54:20;;;;;;;0.40;0.40;;;19.90;50.90;;;;;;5001298;28;45177;-60
2023/03/22 09:57:04;;;;;;;0.50;0.50;;;19.90;50.80;;;;;;5013266;28;45536;-59
2023/03/22 10:00:13;;;;;;;0.55;0.50;;;19.90;50.80;;;;;;5018865;28;44991;-59
2023/03/22 10:02:44;;;;;;;0.47;0.47;;;19.90;50.80;;;;;;5007811;28;45358;-60
2023/03/22 10:05:30;;;;;;;0.60;0.50;;;19.90;50.80;;;;;;5016239;28;45480;-59
2023/03/22 10:08:11;;;;;;;0.38;0.38;;;19.90;50.90;;;;;;5026628;28;44921;-59
2023/03/22 10:10:40;;;;;;;0.55;0.40;;;19.90;50.90;;;;;;4997511;28;45133;-59
2023/03/22 10:13:31;;;;;;;0.47;0.47;;;19.90;50.90;;;;;;4994613;28;44965;-58
2023/03/22 10:15:58;;;;;;;0.50;0.30;;;19.90;50.90;;;;;;4956285;28;46088;-59
2023/03/22 10:18:26;;;;;;;0.30;0.30;;;19.80;50.90;;;;;;4986614;28;44907;-59
2023/03/22 10:21:00;;;;;;;0.55;0.47;;;19.90;50.90;;;;;;4996032;28;44963;-59
2023/03/22 10:24:05;;;;;;;0.60;0.60;;;19.90;50.90;;;;;;5019976;28;45141;-59
2023/03/22 10:26:37;;;;;;;0.40;0.40;;;19.90;50.90;;;;;;4922039;28;47340;-58
2023/03/22 10:29:12;;;;;;;0.57;0.52;;;19.90;50.80;;;;;;4939914;28;45074;-59
2023/03/22 10:31:38;;;;;;;0.38;0.38;;;19.90;50.80;;;;;;4961118;28;45119;-59
2023/03/22 10:34:12;;;;;;;0.43;0.40;;;19.90;50.80;;;;;;5013906;28;44930;-60
2023/03/22 10:36:37;;;;;;;0.47;0.40;;;19.90;50.80;;;;;;5001948;28;46468;-58
2023/03/22 10:39:10;;;;;;;0.88;0.40;;;19.90;50.80;;;;;;4987108;28;44917;-59
2023/03/22 10:41:35;;;;;;;0.47;0.40;;;19.90;50.80;;;;;;4997000;28;46201;-58
2023/03/22 10:44:01;;;;;;;0.35;0.35;;;19.90;50.80;;;;;;4986545;28;45354;-58
2023/03/22 10:46:30;;;;;;;0.50;0.50;;;19.90;50.80;;;;;;4986645;28;45548;-58
2023/03/22 10:48:57;;;;;;;0.85;0.40;;;20.00;50.90;;;;;;5011670;28;44933;-59
2023/03/22 10:51:45;;;;;;;0.35;0.35;;;19.90;50.90;;;;;;4996354;28;45004;-58
2023/03/22 10:54:15;;;;;;;1.48;0.60;;;19.90;50.80;;;;;;5005657;28;44720;-59
2023/03/22 10:56:41;;;;;;;0.47;0.45;;;19.90;50.80;;;;;;5016071;28;46103;-58
2023/03/22 10:59:07;;;;;;;0.60;0.43;;;20.00;51.40;;;;;;5013334;28;44913;-58
2023/03/22 11:01:37;;;;;;;0.40;0.40;;;20.00;50.80;;;;;;4978254;28;44958;-57
2023/03/22 11:04:07;;;;;;;0.32;0.32;;;20.00;50.80;;;;;;4982311;28;45942;-57
2023/03/22 11:06:35;;;;;;;0.40;0.40;;;20.00;50.80;;;;;;5003870;28;45434;-59
2023/03/22 11:09:12;;;;;;;0.65;0.52;;;20.00;50.80;;;;;;5016746;28;44996;-54
2023/03/22 11:11:48;;;;;;;0.25;0.25;;;20.00;50.70;;;;;;5003343;28;45203;-54
2023/03/22 11:14:19;;;;;;;0.63;0.40;;;20.00;50.70;;;;;;5008802;28;44937;-59
2023/03/22 11:16:52;;;;;;;0.68;0.50;;;20.00;50.70;;;;;;4996928;28;45178;-58
2023/03/22 11:19:20;;;;;;;;;;;20.00;50.70;;;;;;4994509;28;44824;-58
2023/03/22 11:21:46;;;;;;;1.77;0.30;;;20.00;50.70;;;;;;4996152;28;45584;-59
2023/03/22 11:24:12;;;;;;;0.57;0.40;;;20.00;50.70;;;;;;5018379;28;45210;-59
2023/03/22 11:26:37;;;;;;;0.88;0.60;;;20.00;50.70;;;;;;5011754;28;45095;-58
2023/03/22 11:29:17;;;;;;;0.35;0.35;;;20.00;50.70;;;;;;5023544;28;44921;-58
2023/03/22 11:32:28;;;;;;;0.65;0.40;;;20.00;50.60;;;;;;5009777;28;45182;-59
2023/03/22 11:35:15;;;;;;;0.40;0.30;;;20.00;50.60;;;;;;5024546;28;45840;-60
2023/03/22 11:37:41;;;;;;;0.38;0.38;;;20.00;50.60;;;;;;5021299;28;45673;-57
2023/03/22 11:40:14;;;;;;;1.35;0.40;;;20.00;50.70;;;;;;5025086;28;44889;-58
2023/03/22 11:42:39;;;;;;;0.57;0.50;;;20.00;50.70;;;;;;5023670;28;44811;-59
2023/03/22 11:45:06;;;;;;;0.43;0.43;;;20.00;50.70;;;;;;5021985;28;44949;-59
2023/03/22 11:47:35;;;;;;;0.88;0.50;;;20.00;50.70;;;;;;5013295;28;45146;-58
2023/03/22 11:50:04;;;;;;;0.47;0.40;;;20.00;50.70;;;;;;5005999;28;45117;-57
2023/03/22 11:52:30;;;;;;;0.40;0.30;;;20.00;50.70;;;;;;5005105;28;44972;-57
2023/03/22 11:54:55;;;;;;;0.50;0.50;;;20.00;50.70;;;;;;5019851;28;45518;-58
2023/03/22 11:57:26;;;;;;;0.45;0.43;;;20.00;50.60;;;;;;4988223;28;45401;-57
2023/03/22 12:00:09;;;;;;;0.30;0.30;;;20.00;50.60;;;;;;4994133;28;45033;-58
2023/03/22 12:02:37;;;;;;;0.83;0.40;;;20.10;50.70;;;;;;5006662;28;45071;-58
2023/03/22 12:05:22;;;;;;;1.95;0.60;;;20.10;50.70;;;;;;4989854;28;45099;-59
2023/03/22 12:07:51;;;;;;;0.60;0.40;;;20.00;50.60;;;;;;5013494;28;45806;-57
2023/03/22 12:10:20;;;;;;;0.50;0.40;;;20.10;50.70;;;;;;4985825;28;45268;-58
2023/03/22 12:12:50;;;;;;;0.40;0.40;;;20.10;50.70;;;;;;5023317;28;45166;-58
2023/03/22 12:15:23;;;;;;;0.47;0.40;;;20.10;50.60;;;;;;4989541;28;44981;-56
2023/03/22 12:17:52;;;;;;;0.43;0.30;;;20.10;50.50;;;;;;5020947;28;45939;-58
2023/03/22 12:20:28;;;;;;;0.22;0.22;;;20.10;50.50;;;;;;4987578;28;44905;-59
2023/03/22 12:22:54;;;;;;;0.40;0.40;;;20.10;50.50;;;;;;5016386;28;45151;-58
2023/03/22 12:25:22;;;;;;;0.30;0.30;;;20.10;50.60;;;;;;5006842;28;45163;-58
2023/03/22 12:27:56;;;;;;;0.38;0.38;;;20.10;50.60;;;;;;4997541;28;45724;-58
2023/03/22 12:30:24;;;;;;;0.50;0.50;;;20.10;50.60;;;;;;4997752;28;44825;-58
2023/03/22 12:33:00;;;;;;;0.32;0.32;;;20.10;50.50;;;;;;4991864;28;45019;-57
2023/03/22 12:35:33;;;;;;;0.60;0.50;;;20.10;50.50;;;;;;4991854;28;45266;-57
2023/03/22 12:38:00;;;;;;;;;;;20.20;50.60;;;;;;5008878;28;45511;-57
2023/03/22 12:40:35;;;;;;;0.30;0.30;;;20.10;50.50;;;;;;5001045;28;44795;-59
2023/03/22 12:43:29;;;;;;;0.40;0.40;;;20.10;50.60;;;;;;5024694;28;45044;-58
2023/03/22 12:45:57;;;;;;;0.40;0.40;;;20.10;50.50;;;;;;4993281;28;45094;-59
2023/03/22 12:48:37;;;;;;;1.10;0.43;;;20.10;50.60;;;;;;5020303;28;45676;-58
2023/03/22 12:51:06;;;;;;;0.40;0.30;;;20.10;50.60;;;;;;5001539;28;45359;-57
2023/03/22 12:53:41;;;;;;;0.20;0.20;;;20.10;50.60;;;;;;5019702;28;45060;-58
2023/03/22 12:56:22;;;;;;;0.40;0.40;;;20.10;50.60;;;;;;4985154;28;45327;-57
2023/03/22 12:58:50;;;;;;;0.45;0.45;;;20.10;50.50;;;;;;5004156;28;45467;-59
2023/03/22 13:01:32;;;;;;;0.50;0.50;;;20.20;50.60;;;;;;4987912;28;45347;-56
2023/03/22 13:03:58;;;;;;;0.50;0.40;;;20.20;50.60;;;;;;5009750;28;44822;-59
2023/03/22 13:06:31;;;;;;;0.55;0.40;;;20.10;50.60;;;;;;4986745;28;44955;-58
2023/03/22 13:09:07;;;;;;;0.38;0.38;;;20.20;50.60;;;;;;5017815;28;45699;-58
2023/03/22 13:11:33;;;;;;;0.38;0.35;;;20.20;50.70;;;;;;5003640;28;45444;-57
2023/03/22 13:13:58;;;;;;;0.40;0.38;;;20.10;50.60;;;;;;4996244;28;44892;-57
2023/03/22 13:16:43;;;;;;;0.47;0.40;;;20.20;50.60;;;;;;5006459;28;45739;-56
2023/03/22 13:19:31;;;;;;;0.43;0.38;;;20.20;50.60;;;;;;5006762;28;47376;-58
2023/03/22 13:22:16;;;;;;;0.30;0.30;;;20.20;50.60;;;;;;5015214;28;45227;-57
2023/03/22 13:25:11;;;;;;;0.80;0.50;;;20.20;50.60;;;;;;5020733;28;45902;-57
2023/03/22 13:27:56;;;;;;;0.40;0.40;;;20.20;50.60;;;;;;5015168;28;45572;-59
2023/03/22 13:30:23;;;;;;;0.30;0.30;;;20.20;50.60;;;;;;4993079;28;46424;-58
2023/03/22 13:32:53;;;;;;;0.50;0.50;;;20.20;50.60;;;;;;5001614;28;45113;-58
2023/03/22 13:35:47;;;;;;;0.57;0.38;;;20.20;50.70;;;;;;5010957;28;45197;-60
2023/03/22 13:38:40;;;;;;;0.40;0.40;;;20.20;50.70;;;;;;5002577;28;45503;-58
2023/03/22 13:41:21;;;;;;;0.25;0.25;;;20.10;50.70;;;;;;4978658;28;45420;-58
2023/03/22 13:43:51;;;;;;;0.43;0.43;;;20.10;50.80;;;;;;5018119;28;45083;-59
2023/03/22 13:46:18;;;;;;;0.30;0.30;;;20.10;50.80;;;;;;4967597;28;44961;-57
2023/03/22 13:48:47;;;;;;;0.43;0.30;;;20.10;50.80;;;;;;5025804;28;45042;-58
2023/03/22 13:51:22;;;;;;;0.40;0.30;;;20.10;50.80;;;;;;5016036;28;45610;-57
2023/03/22 13:54:06;;;;;;;0.40;0.30;;;20.10;50.70;;;;;;5021786;28;45089;-57
2023/03/22 13:56:43;;;;;;;0.65;0.38;;;20.10;50.80;;;;;;5003347;28;45209;-56
2023/03/22 13:59:24;;;;;;;0.32;0.32;;;20.10;50.70;;;;;;5022453;28;45195;-56
2023/03/22 14:01:56;;;;;;;0.30;0.30;;;20.20;50.80;;;;;;5012182;28;45589;-58
2023/03/22 14:04:39;;;;;;;0.33;0.33;;;20.20;51.30;;;;;;5006880;28;45013;-57
2023/03/22 14:07:26;;;;;;;0.50;0.30;;;20.10;50.70;;;;;;4998750;28;44851;-56
2023/03/22 14:09:53;;;;;;;0.35;0.35;;;20.10;50.60;;;;;;5026899;28;44832;-58
2023/03/22 14:12:50;;;;;;;0.30;0.30;;;20.20;50.70;;;;;;4990165;28;45192;-59
2023/03/22 14:15:18;;;;;;;0.40;0.40;;;20.20;50.70;;;;;;4971012;28;45133;-57
2023/03/22 14:17:50;;;;;;;0.55;0.55;;;20.10;50.70;;;;;;5022562;28;45155;-58
2023/03/22 14:20:20;;;;;;;0.32;0.32;;;20.20;50.80;;;;;;4994780;28;45078;-59
2023/03/22 14:23:03;;;;;;;0.50;0.43;;;20.20;50.80;;;;;;4989646;28;46700;-58
2023/03/22 14:25:31;;;;;;;0.38;0.38;;;20.20;50.70;;;;;;4991366;28;45104;-56
2023/03/22 14:27:56;;;;;;;0.30;0.30;;;20.10;50.70;;;;;;5016259;28;45320;-57
2023/03/22 14:30:31;;;;;;;0.50;0.50;;;20.20;50.80;;;;;;5007084;28;45582;-56
2023/03/22 14:33:00;;;;;;;0.20;0.20;;;20.20;50.70;;;;;;5018755;28;46367;-60
2023/03/22 14:35:42;;;;;;;0.50;0.50;;;20.10;50.70;;;;;;4998819;28;44819;-58
2023/03/22 14:38:31;;;;;;;0.35;0.35;;;20.20;50.80;;;;;;4993173;28;44988;-58
2023/03/22 14:41:17;;;;;;;0.30;0.30;;;20.20;50.70;;;;;;5005533;28;45127;-57
2023/03/22 14:43:47;;;;;;;0.95;0.30;;;20.20;50.80;;;;;;5015204;28;45943;-57
2023/03/22 14:46:28;;;;;;;0.30;0.30;;;20.10;50.70;;;;;;4986904;28;45234;-57
2023/03/22 14:48:55;;;;;;;0.52;0.40;;;20.20;50.80;;;;;;5023197;28;44969;-57
2023/03/22 14:51:29;;;;;;;0.40;0.35;;;20.20;50.80;;;;;;5021417;28;45052;-57
2023/03/22 14:53:55;;;;;;;0.70;0.50;;;20.20;50.80;;;;;;5003931;28;45966;-57
2023/03/22 14:56:29;;;;;;;0.40;0.40;;;20.10;50.70;;;;;;4985053;28;44966;-58
2023/03/22 14:58:55;;;;;;;0.35;0.30;;;20.20;50.80;;;;;;5008300;28;44946;-58
2023/03/22 15:01:35;;;;;;;0.50;0.50;;;20.10;50.70;;;;;;4983007;28;45843;-58
2023/03/22 15:04:03;;;;;;;0.32;0.32;;;20.20;50.80;;;;;;4994761;28;45363;-59
2023/03/22 15:06:29;;;;;;;0.60;0.52;;;20.20;50.80;;;;;;5002340;28;44712;-59
2023/03/22 15:08:55;;;;;;;0.50;0.50;;;20.20;50.80;;;;;;5022941;28;44654;-57
2023/03/22 15:11:20;;;;;;;0.57;0.40;;;20.20;50.80;;;;;;5001723;28;45233;-57
2023/03/22 15:13:46;;;;;;;0.32;0.30;;;20.20;50.80;;;;;;5010276;28;45422;-57
2023/03/22 15:16:19;;;;;;;0.30;0.30;;;20.10;50.70;;;;;;4975522;28;45084;-58
2023/03/22 15:18:45;;;;;;;0.20;0.20;;;20.20;51.40;;;;;;4995120;28;44795;-57
2023/03/22 15:21:11;;;;;;;0.20;0.20;;;20.10;50.80;;;;;;5010458;28;45841;-57
2023/03/22 15:23:50;;;;;;;0.32;0.32;;;20.20;50.90;;;;;;4991776;28;46953;-56
2023/03/22 15:26:24;;;;;;;0.40;0.40;;;20.20;50.90;;;;;;5009175;28;45263;-58
2023/03/22 15:28:53;;;;;;;0.35;0.30;;;20.10;50.80;;;;;;5020726;28;45168;-57
2023/03/22 15:31:43;;;;;;;0.55;0.40;;;20.10;50.80;;;;;;4999047;28;45181;-57
2023/03/22 15:34:18;;;;;;;0.30;0.30;;;20.10;50.80;;;;;;5014660;28;45940;-59
2023/03/22 15:36:45;;;;;;;0.50;0.35;;;20.20;50.90;;;;;;5003326;28;44618;-57
2023/03/22 15:39:24;;;;;;;0.30;0.30;;;20.10;50.80;;;;;;5011828;28;45084;-57
2023/03/22 15:42:00;;;;;;;2.65;0.40;;;20.10;50.90;;;;;;5003235;28;45196;-58
2023/03/22 15:44:28;;;;;;;0.43;0.30;;;20.10;50.80;;;;;;4990122;28;45517;-55
2023/03/22 15:47:14;;;;;;;0.95;0.50;;;20.10;50.90;;;;;;5010371;28;44921;-58
2023/03/22 15:49:45;;;;;;;0.40;0.32;;;20.10;50.90;;;;;;5010888;28;45158;-58
2023/03/22 15:52:16;;;;;;;0.40;0.40;;;20.10;50.90;;;;;;5009385;28;45265;-60
2023/03/22 15:55:00;;;;;;;0.30;0.30;;;20.10;50.90;;;;;;4982524;28;47134;-58
2023/03/22 15:57:39;;;;;;;0.30;0.30;;;20.10;50.90;;;;;;5014336;28;45111;-57
2023/03/22 16:00:09;;;;;;;0.30;0.30;;;20.10;50.90;;;;;;5009881;28;45079;-57
2023/03/22 16:02:35;;;;;;;0.22;0.20;;;20.10;50.90;;;;;;5015695;28;45017;-58
2023/03/22 16:05:01;;;;;;;0.50;0.50;;;20.10;50.90;;;;;;5002541;28;45546;-57
2023/03/22 16:07:28;;;;;;;0.30;0.30;;;20.10;50.90;;;;;;4983885;28;44693;-58
2023/03/22 16:09:54;;;;;;;0.50;0.40;;;20.10;50.90;;;;;;5026226;28;45046;-58
2023/03/22 16:12:20;;;;;;;0.47;0.47;;;20.10;50.90;;;;;;5015418;28;44989;-56
2023/03/22 16:14:46;;;;;;;0.50;0.50;;;20.10;51.00;;;;;;5003786;28;45239;-58
2023/03/22 16:17:23;;;;;;;0.30;0.30;;;20.10;50.90;;;;;;4995594;28;44861;-60
2023/03/22 16:19:49;;;;;;;0.30;0.30;;;20.10;51.00;;;;;;4987718;28;45039;-56
2023/03/22 16:22:15;;;;;;;0.50;0.50;;;20.10;51.00;;;;;;4983848;28;44987;-56
2023/03/22 16:24:42;;;;;;;0.50;0.40;;;20.10;50.90;;;;;;5013353;28;45212;-57
2023/03/22 16:27:13;;;;;;;0.32;0.32;;;20.10;51.00;;;;;;4998646;28;44621;-56
2023/03/22 16:29:38;;;;;;;0.30;0.30;;;20.10;50.90;;;;;;5003810;28;44953;-60
2023/03/22 16:32:04;;;;;;;0.30;0.30;;;20.10;50.90;;;;;;4997271;28;45101;-55
2023/03/22 16:34:30;;;;;;;0.52;0.22;;;20.10;51.00;;;;;;4996674;28;46460;-59
2023/03/22 16:36:56;;;;;;;0.40;0.40;;;20.10;51.00;;;;;;4998706;28;46215;-59
2023/03/22 16:39:22;;;;;;;0.30;0.30;;;20.10;51.00;;;;;;4996666;28;45065;-58
2023/03/22 16:41:48;;;;;;;0.30;0.30;;;20.10;51.00;;;;;;5022531;28;45158;-56
2023/03/22 16:44:15;;;;;;;0.40;0.38;;;20.00;51.00;;;;;;5014247;28;46064;-57
2023/03/22 16:46:41;;;;;;;0.43;0.43;;;20.00;51.00;;;;;;5002548;28;44927;-58
2023/03/22 16:49:06;;;;;;;0.25;0.25;;;20.00;51.00;;;;;;5002873;28;45176;-57
2023/03/22 16:51:34;;;;;;;0.40;0.40;;;20.00;51.00;;;;;;5001443;28;45562;-58
2023/03/22 16:53:59;;;;;;;0.30;0.30;;;20.10;51.10;;;;;;4986495;28;46167;-58
2023/03/22 16:56:29;;;;;;;0.20;0.20;;;20.00;51.00;;;;;;4995209;28;45090;-56
2023/03/22 16:58:55;;;;;;;0.35;0.30;;;20.00;51.10;;;;;;5008040;28;45183;-57
2023/03/22 17:01:21;;;;;;;0.50;0.38;;;20.00;51.10;;;;;;4991548;28;44860;-55
2023/03/22 17:03:50;;;;;;;0.40;0.40;;;20.00;51.10;;;;;;5016623;28;45231;-59